sensor_id;sensor_type;location;lat;lon;timestamp;pressure;altitude;pressure_sealevel;temperature;humidity
68807;BME280;55800;54.272;18.558;2023-04-06T00:01:54;101789.69;;;-0.56;54.79
68807;BME280;55800;54.272;18.558;2023-04-06T00:04:25;101788.91;;;-0.52;54.65
68807;BME280;55800;54.272;18.558;2023-04-06T00:06:54;101793.34;;;-0.49;54.95
68807;BME280;55800;54.272;18.558;2023-04-06T00:09:24;101797.78;;;-0.47;55.64
68807;BME280;55800;54.272;18.558;2023-04-06T00:11:53;101787.28;;;-0.47;55.38
68807;BME280;55800;54.272;18.558;2023-04-06T00:14:23;101792.53;;;-0.47;55.33
68807;BME280;55800;54.272;18.558;2023-04-06T00:16:52;101789.06;;;-0.44;54.78
68807;BME280;55800;54.272;18.558;2023-04-06T00:19:23;101789.09;;;-0.43;54.72
68807;BME280;55800;54.272;18.558;2023-04-06T00:21:53;101782.16;;;-0.41;54.74
68807;BME280;55800;54.272;18.558;2023-04-06T00:24:23;101790.13;;;-0.36;55.32
68807;BME280;55800;54.272;18.558;2023-04-06T00:26:53;101780.47;;;-0.36;54.60
68807;BME280;55800;54.272;18.558;2023-04-06T00:29:23;101781.41;;;-0.34;54.95
68807;BME280;55800;54.272;18.558;2023-04-06T00:31:52;101787.53;;;-0.33;54.82
68807;BME280;55800;54.272;18.558;2023-04-06T00:34:23;101784.09;;;-0.31;54.42
68807;BME280;55800;54.272;18.558;2023-04-06T00:36:53;101784.09;;;-0.31;54.31
68807;BME280;55800;54.272;18.558;2023-04-06T00:39:23;101788.47;;;-0.31;57.02
68807;BME280;55800;54.272;18.558;2023-04-06T00:41:52;101782.31;;;-0.32;55.57
68807;BME280;55800;54.272;18.558;2023-04-06T00:44:23;101785.88;;;-0.30;54.84
68807;BME280;55800;54.272;18.558;2023-04-06T00:46:53;101780.63;;;-0.30;54.32
68807;BME280;55800;54.272;18.558;2023-04-06T00:49:25;101777.13;;;-0.29;54.20
68807;BME280;55800;54.272;18.558;2023-04-06T00:51:54;101775.41;;;-0.28;54.59
68807;BME280;55800;54.272;18.558;2023-04-06T00:54:28;101778.84;;;-0.31;54.31
68807;BME280;55800;54.272;18.558;2023-04-06T00:56:58;101778.00;;;-0.30;54.74
68807;BME280;55800;54.272;18.558;2023-04-06T00:59:30;101771.88;;;-0.29;54.14
68807;BME280;55800;54.272;18.558;2023-04-06T01:02:02;101771.88;;;-0.29;54.19
68807;BME280;55800;54.272;18.558;2023-04-06T01:04:40;101775.38;;;-0.30;54.24
68807;BME280;55800;54.272;18.558;2023-04-06T01:07:16;101768.31;;;-0.32;54.53
68807;BME280;55800;54.272;18.558;2023-04-06T01:09:59;101771.81;;;-0.32;54.14
68807;BME280;55800;54.272;18.558;2023-04-06T01:12:32;101767.41;;;-0.34;55.82
68807;BME280;55800;54.272;18.558;2023-04-06T01:15:09;101769.84;;;-0.42;54.84
68807;BME280;55800;54.272;18.558;2023-04-06T01:17:41;101764.66;;;-0.39;54.94
68807;BME280;55800;54.272;18.558;2023-04-06T01:20:17;101767.31;;;-0.39;54.10
68807;BME280;55800;54.272;18.558;2023-04-06T01:22:48;101766.38;;;-0.41;53.96
68807;BME280;55800;54.272;18.558;2023-04-06T01:25:19;101761.06;;;-0.44;54.13
68807;BME280;55800;54.272;18.558;2023-04-06T01:28:02;101761.03;;;-0.45;53.90
68807;BME280;55800;54.272;18.558;2023-04-06T01:30:49;101757.47;;;-0.49;53.81
68807;BME280;55800;54.272;18.558;2023-04-06T01:33:37;101757.38;;;-0.52;53.79
68807;BME280;55800;54.272;18.558;2023-04-06T01:36:12;101754.66;;;-0.56;53.64
68807;BME280;55800;54.272;18.558;2023-04-06T01:38:44;101756.34;;;-0.60;53.54
68807;BME280;55800;54.272;18.558;2023-04-06T01:41:17;101758.91;;;-0.63;53.64
68807;BME280;55800;54.272;18.558;2023-04-06T01:43:50;101757.94;;;-0.66;53.64
68807;BME280;55800;54.272;18.558;2023-04-06T01:46:26;101756.13;;;-0.70;53.84
68807;BME280;55800;54.272;18.558;2023-04-06T01:48:56;101765.69;;;-0.72;53.75
68807;BME280;55800;54.272;18.558;2023-04-06T01:51:35;101763.88;;;-0.75;53.46
68807;BME280;55800;54.272;18.558;2023-04-06T01:54:08;101756.81;;;-0.79;53.46
68807;BME280;55800;54.272;18.558;2023-04-06T01:57:04;101753.19;;;-0.84;53.38
68807;BME280;55800;54.272;18.558;2023-04-06T01:59:41;101755.75;;;-0.87;53.56
68807;BME280;55800;54.272;18.558;2023-04-06T02:02:19;101753.94;;;-0.90;53.49
68807;BME280;55800;54.272;18.558;2023-04-06T02:04:58;101761.72;;;-0.94;53.33
68807;BME280;55800;54.272;18.558;2023-04-06T02:07:29;101759.00;;;-0.97;53.37
68807;BME280;55800;54.272;18.558;2023-04-06T02:09:59;101764.19;;;-1.00;53.35
68807;BME280;55800;54.272;18.558;2023-04-06T02:12:36;101758.03;;;-1.02;53.63
68807;BME280;55800;54.272;18.558;2023-04-06T02:15:09;101757.81;;;-1.11;53.97
68807;BME280;55800;54.272;18.558;2023-04-06T02:17:41;101762.19;;;-1.10;53.73
68807;BME280;55800;54.272;18.558;2023-04-06T02:20:11;101756.88;;;-1.13;53.51
68807;BME280;55800;54.272;18.558;2023-04-06T02:22:41;101762.13;;;-1.13;53.29
68807;BME280;55800;54.272;18.558;2023-04-06T02:25:12;101755.88;;;-1.18;54.09
68807;BME280;55800;54.272;18.558;2023-04-06T02:27:41;101759.22;;;-1.25;55.08
68807;BME280;55800;54.272;18.558;2023-04-06T03:05:05;101780.81;;;-1.70;54.00
68807;BME280;55800;54.272;18.558;2023-04-06T03:07:39;101776.41;;;-1.72;55.46
68807;BME280;55800;54.272;18.558;2023-04-06T03:10:14;101768.47;;;-1.74;54.34
68807;BME280;55800;54.272;18.558;2023-04-06T03:12:45;101764.94;;;-1.76;54.99
68807;BME280;55800;54.272;18.558;2023-04-06T03:15:15;101769.31;;;-1.76;54.08
68807;BME280;55800;54.272;18.558;2023-04-06T03:17:50;101766.63;;;-1.78;53.85
68807;BME280;55800;54.272;18.558;2023-04-06T03:20:34;101772.66;;;-1.80;53.89
68807;BME280;55800;54.272;18.558;2023-04-06T03:23:03;101770.91;;;-1.81;53.68
68807;BME280;55800;54.272;18.558;2023-04-06T03:25:38;101770.66;;;-1.90;55.95
68807;BME280;55800;54.272;18.558;2023-04-06T03:28:11;101773.16;;;-1.95;55.18
68807;BME280;55800;54.272;18.558;2023-04-06T03:30:49;101773.16;;;-1.95;54.81
68807;BME280;55800;54.272;18.558;2023-04-06T03:33:29;101774.84;;;-1.97;55.02
68807;BME280;55800;54.272;18.558;2023-04-06T03:36:00;101770.31;;;-2.04;55.74
68807;BME280;55800;54.272;18.558;2023-04-06T03:38:31;101779.72;;;-2.10;57.41
68807;BME280;55800;54.272;18.558;2023-04-06T03:41:04;101775.41;;;-2.08;55.94
68807;BME280;55800;54.272;18.558;2023-04-06T03:43:33;101777.00;;;-2.13;56.64
68807;BME280;55800;54.272;18.558;2023-04-06T03:46:03;101781.47;;;-2.09;55.24
68807;BME280;55800;54.272;18.558;2023-04-06T03:48:33;101786.72;;;-2.09;55.23
68807;BME280;55800;54.272;18.558;2023-04-06T03:51:06;101790.91;;;-2.16;55.70
68807;BME280;55800;54.272;18.558;2023-04-06T03:53:36;101796.22;;;-2.14;55.42
68807;BME280;55800;54.272;18.558;2023-04-06T03:56:06;101797.19;;;-2.11;54.99
68807;BME280;55800;54.272;18.558;2023-04-06T03:58:35;101791.81;;;-2.15;54.74
68807;BME280;55800;54.272;18.558;2023-04-06T04:01:05;101803.84;;;-2.22;55.79
68807;BME280;55800;54.272;18.558;2023-04-06T04:03:35;101803.78;;;-2.25;55.22
68807;BME280;55800;54.272;18.558;2023-04-06T04:06:07;101802.91;;;-2.24;54.85
68807;BME280;55800;54.272;18.558;2023-04-06T04:08:37;101809.00;;;-2.25;54.61
68807;BME280;55800;54.272;18.558;2023-04-06T04:11:08;101807.22;;;-2.26;55.01
68807;BME280;55800;54.272;18.558;2023-04-06T04:13:38;101806.25;;;-2.29;55.82
68807;BME280;55800;54.272;18.558;2023-04-06T04:16:09;101795.72;;;-2.31;54.71
68807;BME280;55800;54.272;18.558;2023-04-06T04:18:39;101810.50;;;-2.33;55.52
68807;BME280;55800;54.272;18.558;2023-04-06T04:21:09;101807.69;;;-2.39;55.30
68807;BME280;55800;54.272;18.558;2023-04-06T04:23:39;101800.59;;;-2.43;58.16
68807;BME280;55800;54.272;18.558;2023-04-06T04:26:08;101805.16;;;-2.38;57.53
68807;BME280;55800;54.272;18.558;2023-04-06T04:28:38;101798.16;;;-2.37;55.30
68807;BME280;55800;54.272;18.558;2023-04-06T04:31:08;101798.09;;;-2.40;55.16
68807;BME280;55800;54.272;18.558;2023-04-06T04:33:40;101798.09;;;-2.40;55.15
68807;BME280;55800;54.272;18.558;2023-04-06T04:36:16;101804.91;;;-2.45;55.52
68807;BME280;55800;54.272;18.558;2023-04-06T04:38:47;101803.22;;;-2.43;55.11
68807;BME280;55800;54.272;18.558;2023-04-06T04:41:17;101805.84;;;-2.43;56.10
68807;BME280;55800;54.272;18.558;2023-04-06T04:43:48;101806.59;;;-2.47;55.58
68807;BME280;55800;54.272;18.558;2023-04-06T04:46:22;101808.28;;;-2.49;56.53
68807;BME280;55800;54.272;18.558;2023-04-06T04:48:53;101797.78;;;-2.51;56.62
68807;BME280;55800;54.272;18.558;2023-04-06T04:51:24;101806.59;;;-2.47;56.66
68807;BME280;55800;54.272;18.558;2023-04-06T04:54:05;101804.91;;;-2.45;55.69
68807;BME280;55800;54.272;18.558;2023-04-06T04:56:34;101806.56;;;-2.49;57.10
68807;BME280;55800;54.272;18.558;2023-04-06T04:59:17;101808.38;;;-2.46;58.15
68807;BME280;55800;54.272;18.558;2023-04-06T05:01:54;101804.94;;;-2.44;57.95
68807;BME280;55800;54.272;18.558;2023-04-06T05:04:32;101809.41;;;-2.40;58.76
68807;BME280;55800;54.272;18.558;2023-04-06T05:07:07;101807.78;;;-2.38;58.08
68807;BME280;55800;54.272;18.558;2023-04-06T05:09:39;101819.19;;;-2.35;59.10
68807;BME280;55800;54.272;18.558;2023-04-06T05:12:10;101813.22;;;-2.30;59.63
68807;BME280;55800;54.272;18.558;2023-04-06T05:14:50;101813.34;;;-2.25;59.43
68807;BME280;55800;54.272;18.558;2023-04-06T05:17:22;101806.44;;;-2.23;60.12
68807;BME280;55800;54.272;18.558;2023-04-06T05:19:51;101821.41;;;-2.18;59.28
68807;BME280;55800;54.272;18.558;2023-04-06T05:22:26;101821.59;;;-2.12;59.63
68807;BME280;55800;54.272;18.558;2023-04-06T05:25:03;101819.25;;;-2.01;60.43
68807;BME280;55800;54.272;18.558;2023-04-06T05:27:33;101822.94;;;-1.95;59.65
68807;BME280;55800;54.272;18.558;2023-04-06T05:30:09;101816.19;;;-1.87;60.68
68807;BME280;55800;54.272;18.558;2023-04-06T05:32:44;101824.38;;;-1.75;61.66
68807;BME280;55800;54.272;18.558;2023-04-06T05:35:15;101819.34;;;-1.67;61.03
68807;BME280;55800;54.272;18.558;2023-04-06T05:37:49;101826.72;;;-1.52;61.02
68807;BME280;55800;54.272;18.558;2023-04-06T05:40:23;101822.59;;;-1.43;61.27
68807;BME280;55800;54.272;18.558;2023-04-06T05:42:53;101818.38;;;-1.38;61.96
68807;BME280;55800;54.272;18.558;2023-04-06T05:45:23;101815.00;;;-1.32;61.79
68807;BME280;55800;54.272;18.558;2023-04-06T05:47:56;101822.25;;;-1.22;62.43
68807;BME280;55800;54.272;18.558;2023-04-06T05:50:29;101819.84;;;-1.13;61.22
68807;BME280;55800;54.272;18.558;2023-04-06T05:53:00;101822.66;;;-1.06;61.27
68807;BME280;55800;54.272;18.558;2023-04-06T05:55:36;101815.00;;;-0.98;61.77
68807;BME280;55800;54.272;18.558;2023-04-06T05:58:17;101823.28;;;-0.80;61.80
68807;BME280;55800;54.272;18.558;2023-04-06T06:00:48;101821.94;;;-0.61;63.77
68807;BME280;55800;54.272;18.558;2023-04-06T06:03:20;101815.38;;;-0.43;62.10
68807;BME280;55800;54.272;18.558;2023-04-06T06:05:58;101818.16;;;-0.35;62.71
68807;BME280;55800;54.272;18.558;2023-04-06T06:08:36;101820.16;;;-0.24;62.88
68807;BME280;55800;54.272;18.558;2023-04-06T06:11:12;101813.16;;;-0.23;62.48
68807;BME280;55800;54.272;18.558;2023-04-06T06:13:42;101816.00;;;-0.13;63.19
68807;BME280;55800;54.272;18.558;2023-04-06T06:16:11;101812.84;;;0.04;63.88
68807;BME280;55800;54.272;18.558;2023-04-06T06:18:45;101824.56;;;0.21;63.89
68807;BME280;55800;54.272;18.558;2023-04-06T06:21:15;101822.09;;;0.30;63.95
68807;BME280;55800;54.272;18.558;2023-04-06T06:23:47;101819.72;;;0.42;62.66
68807;BME280;55800;54.272;18.558;2023-04-06T06:26:20;101817.25;;;0.51;61.79
68807;BME280;55800;54.272;18.558;2023-04-06T06:28:51;101827.00;;;0.58;62.31
68807;BME280;55800;54.272;18.558;2023-04-06T06:31:20;101817.63;;;0.72;61.45
68807;BME280;55800;54.272;18.558;2023-04-06T06:33:50;101830.00;;;0.77;61.52
68807;BME280;55800;54.272;18.558;2023-04-06T06:36:21;101826.59;;;0.85;60.60
68807;BME280;55800;54.272;18.558;2023-04-06T06:38:53;101820.56;;;0.92;61.23
68807;BME280;55800;54.272;18.558;2023-04-06T06:41:23;101816.34;;;1.00;60.19
68807;BME280;55800;54.272;18.558;2023-04-06T06:43:53;101810.34;;;1.10;60.48
68807;BME280;55800;54.272;18.558;2023-04-06T06:46:23;101812.22;;;1.18;60.66
68807;BME280;55800;54.272;18.558;2023-04-06T06:48:52;101814.13;;;1.28;59.81
68807;BME280;55800;54.272;18.558;2023-04-06T06:51:22;101816.00;;;1.35;59.63
68807;BME280;55800;54.272;18.558;2023-04-06T06:53:54;101817.00;;;1.45;59.32
68807;BME280;55800;54.272;18.558;2023-04-06T06:56:23;101810.13;;;1.54;59.33
68807;BME280;55800;54.272;18.558;2023-04-06T06:58:55;101813.75;;;1.66;59.98
68807;BME280;55800;54.272;18.558;2023-04-06T07:01:25;101819.22;;;1.81;59.21
68807;BME280;55800;54.272;18.558;2023-04-06T07:03:55;101815.00;;;1.92;59.24
68807;BME280;55800;54.272;18.558;2023-04-06T07:06:25;101815.16;;;2.05;59.39
68807;BME280;55800;54.272;18.558;2023-04-06T07:08:56;101817.94;;;2.19;59.61
68807;BME280;55800;54.272;18.558;2023-04-06T07:11:26;101806.66;;;2.33;59.32
68807;BME280;55800;54.272;18.558;2023-04-06T07:13:55;101809.47;;;2.47;59.31
68807;BME280;55800;54.272;18.558;2023-04-06T07:16:25;101806.97;;;2.64;60.21
68807;BME280;55800;54.272;18.558;2023-04-06T07:18:54;101816.81;;;2.81;61.14
68807;BME280;55800;54.272;18.558;2023-04-06T07:21:25;101817.81;;;2.94;59.79
68807;BME280;55800;54.272;18.558;2023-04-06T07:23:57;101811.75;;;3.10;60.07
68807;BME280;55800;54.272;18.558;2023-04-06T07:26:27;101811.88;;;3.24;59.59
68807;BME280;55800;54.272;18.558;2023-04-06T07:28:57;101804.03;;;3.40;59.82
68807;BME280;55800;54.272;18.558;2023-04-06T07:31:27;101810.28;;;3.53;59.51
68807;BME280;55800;54.272;18.558;2023-04-06T07:33:56;101807.72;;;3.68;59.75
68807;BME280;55800;54.272;18.558;2023-04-06T07:36:29;101810.44;;;3.83;60.13
68807;BME280;55800;54.272;18.558;2023-04-06T07:39:00;101817.56;;;3.96;59.21
68807;BME280;55800;54.272;18.558;2023-04-06T07:41:31;101821.13;;;4.10;59.96
68807;BME280;55800;54.272;18.558;2023-04-06T07:44:01;101822.06;;;4.21;59.72
68807;BME280;55800;54.272;18.558;2023-04-06T07:46:31;101821.22;;;4.37;59.77
68807;BME280;55800;54.272;18.558;2023-04-06T07:49:01;101817.72;;;4.50;60.12
68807;BME280;55800;54.272;18.558;2023-04-06T07:51:36;101821.28;;;4.61;59.57
68807;BME280;55800;54.272;18.558;2023-04-06T07:54:07;101810.69;;;4.73;59.34
68807;BME280;55800;54.272;18.558;2023-04-06T07:56:37;101817.78;;;4.90;59.10
68807;BME280;55800;54.272;18.558;2023-04-06T07:59:06;101806.28;;;5.04;59.33
68807;BME280;55800;54.272;18.558;2023-04-06T08:01:36;101809.78;;;5.18;59.06
68807;BME280;55800;54.272;18.558;2023-04-06T08:04:05;101800.06;;;5.28;58.40
68807;BME280;55800;54.272;18.558;2023-04-06T08:06:35;101809.78;;;5.42;58.76
68807;BME280;55800;54.272;18.558;2023-04-06T08:09:06;101808.88;;;5.51;58.66
68807;BME280;55800;54.272;18.558;2023-04-06T08:11:36;101815.03;;;5.64;58.47
68807;BME280;55800;54.272;18.558;2023-04-06T08:14:05;101806.13;;;5.75;58.62
68807;BME280;55800;54.272;18.558;2023-04-06T08:16:36;101807.91;;;5.85;58.66
68807;BME280;55800;54.272;18.558;2023-04-06T08:19:05;101807.84;;;5.97;58.64
68807;BME280;55800;54.272;18.558;2023-04-06T08:21:40;101811.34;;;6.07;58.73
68807;BME280;55800;54.272;18.558;2023-04-06T08:24:13;101805.13;;;6.17;58.68
68807;BME280;55800;54.272;18.558;2023-04-06T08:26:43;101808.56;;;6.32;58.71
68807;BME280;55800;54.272;18.558;2023-04-06T08:29:12;101808.50;;;6.45;58.68
68807;BME280;55800;54.272;18.558;2023-04-06T08:31:42;101804.84;;;6.61;58.33
68807;BME280;55800;54.272;18.558;2023-04-06T08:34:12;101801.16;;;6.77;58.51
68807;BME280;55800;54.272;18.558;2023-04-06T08:36:42;101809.06;;;6.87;58.07
68807;BME280;55800;54.272;18.558;2023-04-06T08:39:14;101811.63;;;7.01;58.11
68807;BME280;55800;54.272;18.558;2023-04-06T08:41:44;101806.19;;;7.13;57.68
68807;BME280;55800;54.272;18.558;2023-04-06T08:44:13;101807.09;;;7.12;56.89
68807;BME280;55800;54.272;18.558;2023-04-06T08:46:43;101815.13;;;7.07;56.92
68807;BME280;55800;54.272;18.558;2023-04-06T08:49:14;101817.78;;;7.07;56.76
68807;BME280;55800;54.272;18.558;2023-04-06T08:51:45;101816.84;;;7.08;57.05
68807;BME280;55800;54.272;18.558;2023-04-06T08:54:16;101816.00;;;7.05;56.40
68807;BME280;55800;54.272;18.558;2023-04-06T08:56:46;101808.03;;;7.02;56.53
68807;BME280;55800;54.272;18.558;2023-04-06T08:59:16;101819.63;;;6.96;55.87
68807;BME280;55800;54.272;18.558;2023-04-06T09:01:47;101810.78;;;6.97;56.51
68807;BME280;55800;54.272;18.558;2023-04-06T09:04:16;101809.91;;;6.94;56.40
68807;BME280;55800;54.272;18.558;2023-04-06T09:06:47;101806.38;;;6.92;56.41
68807;BME280;55800;54.272;18.558;2023-04-06T09:09:19;101807.34;;;6.85;55.55
68807;BME280;55800;54.272;18.558;2023-04-06T09:11:52;101792.28;;;6.81;55.76
68807;BME280;55800;54.272;18.558;2023-04-06T09:14:33;101804.72;;;6.76;55.89
68807;BME280;55800;54.272;18.558;2023-04-06T09:17:03;101795.84;;;6.77;56.07
68807;BME280;55800;54.272;18.558;2023-04-06T09:19:32;101793.22;;;6.78;56.46
68807;BME280;55800;54.272;18.558;2023-04-06T09:22:03;101788.75;;;6.79;55.34
68807;BME280;55800;54.272;18.558;2023-04-06T09:24:44;101796.75;;;6.77;54.93
68807;BME280;55800;54.272;18.558;2023-04-06T09:27:15;101803.78;;;6.84;55.66
68807;BME280;55800;54.272;18.558;2023-04-06T09:29:45;101802.88;;;6.87;55.93
68807;BME280;55800;54.272;18.558;2023-04-06T09:32:14;101804.59;;;6.95;56.16
68807;BME280;55800;54.272;18.558;2023-04-06T09:34:45;101796.56;;;7.01;55.23
68807;BME280;55800;54.272;18.558;2023-04-06T09:37:18;101790.25;;;7.08;55.56
68807;BME280;55800;54.272;18.558;2023-04-06T09:39:50;101792.91;;;7.12;54.35
68807;BME280;55800;54.272;18.558;2023-04-06T09:42:26;101804.44;;;7.12;54.19
68807;BME280;55800;54.272;18.558;2023-04-06T09:44:55;101797.28;;;7.17;54.71
68807;BME280;55800;54.272;18.558;2023-04-06T09:47:25;101798.16;;;7.19;54.47
68807;BME280;55800;54.272;18.558;2023-04-06T09:49:58;101803.50;;;7.18;54.19
68807;BME280;55800;54.272;18.558;2023-04-06T09:52:32;101794.66;;;7.14;53.52
68807;BME280;55800;54.272;18.558;2023-04-06T09:55:05;101794.69;;;7.11;53.12
68807;BME280;55800;54.272;18.558;2023-04-06T09:57:43;101792.91;;;7.08;53.67
68807;BME280;55800;54.272;18.558;2023-04-06T10:00:18;101794.81;;;6.96;52.62
68807;BME280;55800;54.272;18.558;2023-04-06T10:02:54;101795.69;;;6.96;53.01
68807;BME280;55800;54.272;18.558;2023-04-06T10:05:32;101795.63;;;7.02;53.48
68807;BME280;55800;54.272;18.558;2023-04-06T10:08:08;101799.19;;;7.06;53.89
68807;BME280;55800;54.272;18.558;2023-04-06T10:10:40;101795.59;;;7.07;54.04
68807;BME280;55800;54.272;18.558;2023-04-06T10:13:11;101785.81;;;7.10;53.54
68807;BME280;55800;54.272;18.558;2023-04-06T10:15:40;101796.47;;;7.12;52.72
68807;BME280;55800;54.272;18.558;2023-04-06T10:18:11;101803.53;;;7.15;53.86
68807;BME280;55800;54.272;18.558;2023-04-06T10:20:46;101804.25;;;7.30;53.42
68807;BME280;55800;54.272;18.558;2023-04-06T10:23:22;101789.16;;;7.34;52.63
68807;BME280;55800;54.272;18.558;2023-04-06T10:25:55;101802.38;;;7.41;52.59
68807;BME280;55800;54.272;18.558;2023-04-06T10:28:30;101788.94;;;7.53;52.97
68807;BME280;55800;54.272;18.558;2023-04-06T10:31:00;101800.38;;;7.61;53.02
68807;BME280;55800;54.272;18.558;2023-04-06T10:33:30;101797.66;;;7.66;53.11
68807;BME280;55800;54.272;18.558;2023-04-06T10:36:10;101799.44;;;7.67;52.18
68807;BME280;55800;54.272;18.558;2023-04-06T10:38:41;101796.66;;;7.74;53.54
68807;BME280;55800;54.272;18.558;2023-04-06T10:41:12;101796.50;;;7.89;53.43
68807;BME280;55800;54.272;18.558;2023-04-06T10:43:42;101800.88;;;7.95;53.33
68807;BME280;55800;54.272;18.558;2023-04-06T10:46:25;101800.81;;;7.98;52.88
68807;BME280;55800;54.272;18.558;2023-04-06T10:48:55;101796.25;;;8.09;53.22
68807;BME280;55800;54.272;18.558;2023-04-06T10:51:29;101790.88;;;8.14;52.59
68807;BME280;55800;54.272;18.558;2023-04-06T10:53:59;101791.66;;;8.19;53.24
68807;BME280;55800;54.272;18.558;2023-04-06T10:56:35;101793.47;;;8.18;52.92
68807;BME280;55800;54.272;18.558;2023-04-06T10:59:07;101788.94;;;8.23;52.87
68807;BME280;55800;54.272;18.558;2023-04-06T11:01:36;101800.50;;;8.25;52.45
68807;BME280;55800;54.272;18.558;2023-04-06T11:04:06;101783.59;;;8.28;52.66
68807;BME280;55800;54.272;18.558;2023-04-06T11:06:39;101786.34;;;8.20;52.30
68807;BME280;55800;54.272;18.558;2023-04-06T11:09:09;101790.75;;;8.23;52.53
68807;BME280;55800;54.272;18.558;2023-04-06T11:11:39;101784.50;;;8.27;52.02
68807;BME280;55800;54.272;18.558;2023-04-06T11:14:10;101772.03;;;8.29;52.21
68807;BME280;55800;54.272;18.558;2023-04-06T11:16:39;101779.06;;;8.34;52.51
68807;BME280;55800;54.272;18.558;2023-04-06T11:19:09;101774.56;;;8.38;52.74
68807;BME280;55800;54.272;18.558;2023-04-06T11:21:42;101766.47;;;8.45;51.97
68807;BME280;55800;54.272;18.558;2023-04-06T11:24:16;101779.81;;;8.42;52.20
68807;BME280;55800;54.272;18.558;2023-04-06T11:26:49;101772.75;;;8.41;51.84
68807;BME280;55800;54.272;18.558;2023-04-06T11:29:21;101772.69;;;8.46;52.07
68807;BME280;55800;54.272;18.558;2023-04-06T11:31:52;101767.28;;;8.49;52.11
68807;BME280;55800;54.272;18.558;2023-04-06T11:34:23;101767.28;;;8.49;51.60
68807;BME280;55800;54.272;18.558;2023-04-06T11:36:56;101760.28;;;8.42;51.38
68807;BME280;55800;54.272;18.558;2023-04-06T11:39:27;101762.06;;;8.43;51.70
68807;BME280;55800;54.272;18.558;2023-04-06T11:42:00;101758.41;;;8.50;51.82
68807;BME280;55800;54.272;18.558;2023-04-06T11:44:34;101759.13;;;8.59;51.60
68807;BME280;55800;54.272;18.558;2023-04-06T11:47:05;101759.91;;;8.66;52.04
68807;BME280;55800;54.272;18.558;2023-04-06T11:49:43;101756.28;;;8.70;51.02
68807;BME280;55800;54.272;18.558;2023-04-06T11:52:17;101761.63;;;8.70;51.92
68807;BME280;55800;54.272;18.558;2023-04-06T11:54:49;101743.72;;;8.78;52.20
68807;BME280;55800;54.272;18.558;2023-04-06T11:57:22;101745.28;;;8.91;52.83
68807;BME280;55800;54.272;18.558;2023-04-06T11:59:54;101734.53;;;8.96;51.90
68807;BME280;55800;54.272;18.558;2023-04-06T12:02:24;101737.97;;;9.02;51.93
68807;BME280;55800;54.272;18.558;2023-04-06T12:04:54;101742.41;;;9.03;50.96
68807;BME280;55800;54.272;18.558;2023-04-06T12:07:23;101732.59;;;9.04;51.08
68807;BME280;55800;54.272;18.558;2023-04-06T12:09:53;101734.28;;;9.09;51.65
68807;BME280;55800;54.272;18.558;2023-04-06T12:12:24;101736.97;;;9.09;52.02
68807;BME280;55800;54.272;18.558;2023-04-06T12:14:53;101734.19;;;9.15;51.35
68807;BME280;55800;54.272;18.558;2023-04-06T12:17:23;101739.44;;;9.18;51.07
68807;BME280;55800;54.272;18.558;2023-04-06T12:19:52;101733.22;;;9.19;51.31
68807;BME280;55800;54.272;18.558;2023-04-06T12:22:29;101729.53;;;9.26;51.96
68807;BME280;55800;54.272;18.558;2023-04-06T12:24:59;101725.03;;;9.28;51.99
68807;BME280;55800;54.272;18.558;2023-04-06T12:27:33;101722.25;;;9.34;51.20
68807;BME280;55800;54.272;18.558;2023-04-06T12:30:03;101720.31;;;9.42;51.31
68807;BME280;55800;54.272;18.558;2023-04-06T12:32:35;101717.69;;;9.39;50.33
68807;BME280;55800;54.272;18.558;2023-04-06T12:35:05;101716.75;;;9.43;50.65
68807;BME280;55800;54.272;18.558;2023-04-06T12:37:37;101718.41;;;9.49;50.00
68807;BME280;55800;54.272;18.558;2023-04-06T12:40:09;101719.13;;;9.57;50.96
68807;BME280;55800;54.272;18.558;2023-04-06T12:42:42;101711.16;;;9.56;49.65
68807;BME280;55800;54.272;18.558;2023-04-06T12:45:14;101716.63;;;9.50;50.12
68807;BME280;55800;54.272;18.558;2023-04-06T12:47:45;101708.44;;;9.57;50.49
68807;BME280;55800;54.272;18.558;2023-04-06T12:50:14;101708.34;;;9.62;50.68
68807;BME280;55800;54.272;18.558;2023-04-06T12:52:43;101711.88;;;9.64;51.00
68807;BME280;55800;54.272;18.558;2023-04-06T12:55:13;101707.31;;;9.67;51.04
68807;BME280;55800;54.272;18.558;2023-04-06T12:57:45;101709.22;;;9.62;49.83
68807;BME280;55800;54.272;18.558;2023-04-06T13:00:15;101699.53;;;9.57;48.97
68807;BME280;55800;54.272;18.558;2023-04-06T13:02:46;101694.28;;;9.54;49.61
68807;BME280;55800;54.272;18.558;2023-04-06T13:05:16;101684.53;;;9.51;50.74
68807;BME280;55800;54.272;18.558;2023-04-06T13:07:47;101695.19;;;9.53;50.66
68807;BME280;55800;54.272;18.558;2023-04-06T13:10:16;101697.78;;;9.56;50.47
68807;BME280;55800;54.272;18.558;2023-04-06T13:12:47;101692.56;;;9.51;49.80
68807;BME280;55800;54.272;18.558;2023-04-06T13:15:17;101689.97;;;9.47;49.88
68807;BME280;55800;54.272;18.558;2023-04-06T13:17:46;101695.19;;;9.53;50.41
68807;BME280;55800;54.272;18.558;2023-04-06T13:20:16;101698.78;;;9.50;49.38
68807;BME280;55800;54.272;18.558;2023-04-06T13:22:45;101688.09;;;9.52;49.60
68807;BME280;55800;54.272;18.558;2023-04-06T13:25:17;101680.94;;;9.54;50.20
68807;BME280;55800;54.272;18.558;2023-04-06T13:27:49;101686.22;;;9.55;50.49
68807;BME280;55800;54.272;18.558;2023-04-06T13:30:19;101680.94;;;9.54;50.27
68807;BME280;55800;54.272;18.558;2023-04-06T13:32:48;101684.53;;;9.51;50.45
68807;BME280;55800;54.272;18.558;2023-04-06T13:35:19;101688.22;;;9.44;50.07
68807;BME280;55800;54.272;18.558;2023-04-06T13:37:49;101695.25;;;9.50;50.86
68807;BME280;55800;54.272;18.558;2023-04-06T13:40:20;101690.94;;;9.42;50.30
68807;BME280;55800;54.272;18.558;2023-04-06T13:42:51;101691.06;;;9.36;49.90
68807;BME280;55800;54.272;18.558;2023-04-06T13:45:20;101687.72;;;9.25;50.03